createdAt,value
2017-10-23T00:02:00.321Z,15.63
2017-10-23T00:04:34.889Z,12.75
2017-10-23T00:07:09.307Z,10.55
2017-10-23T00:09:43.641Z,11.05
2017-10-23T00:12:18.123Z,9.90
2017-10-23T00:14:52.547Z,11.68
2017-10-23T00:17:26.859Z,9.35
2017-10-23T00:20:01.200Z,13.20
2017-10-23T00:22:35.676Z,11.27
2017-10-23T00:25:10.224Z,15.57
2017-10-23T00:27:44.668Z,11.98
2017-10-23T00:30:19.007Z,11.75
2017-10-23T00:32:53.460Z,10.68
2017-10-23T00:35:27.923Z,14.23
2017-10-23T00:38:02.277Z,12.30
2017-10-23T00:40:36.722Z,13.73
2017-10-23T00:43:11.088Z,10.07
2017-10-23T00:45:45.599Z,9.68
2017-10-23T00:48:20.089Z,13.88
2017-10-23T00:50:54.539Z,16.05
2017-10-23T00:53:28.894Z,9.48
2017-10-23T00:56:03.204Z,15.68
2017-10-23T00:58:37.575Z,17.67
2017-10-23T01:01:11.991Z,10.30
2017-10-23T01:03:46.513Z,11.88
2017-10-23T01:06:20.896Z,11.32
2017-10-23T01:08:56.199Z,10.93
2017-10-23T01:11:31.379Z,10.35
2017-10-23T01:14:05.865Z,11.32
2017-10-23T01:16:41.061Z,12.30
2017-10-23T01:19:15.466Z,9.85
2017-10-23T01:21:49.844Z,10.38
2017-10-23T01:24:24.920Z,12.25
2017-10-23T01:26:59.381Z,12.15
2017-10-23T01:29:33.735Z,12.25
2017-10-23T01:32:08.219Z,10.65
2017-10-23T01:34:42.739Z,12.30
2017-10-23T01:37:17.176Z,10.10
2017-10-23T01:39:51.627Z,12.80
2017-10-23T01:42:26.940Z,11.57
2017-10-23T01:45:01.296Z,20.52
2017-10-23T01:47:35.684Z,17.05
2017-10-23T01:50:10.047Z,16.33
2017-10-23T01:52:44.561Z,11.38
2017-10-23T01:55:18.897Z,16.17
2017-10-23T01:57:53.306Z,12.95
2017-10-23T02:00:28.536Z,11.52
2017-10-23T02:03:02.900Z,20.05
2017-10-23T02:05:37.208Z,19.10
2017-10-23T02:08:12.328Z,14.73
2017-10-23T02:10:46.646Z,14.05
2017-10-23T02:13:21.022Z,16.80
2017-10-23T02:15:55.435Z,15.02
2017-10-23T02:18:29.743Z,13.48
2017-10-23T02:21:04.178Z,14.65
2017-10-23T02:23:38.619Z,15.23
2017-10-23T02:26:13.847Z,15.00
2017-10-23T02:28:48.244Z,15.07
2017-10-23T02:31:22.803Z,15.15
2017-10-23T02:33:57.110Z,14.75
2017-10-23T02:36:31.520Z,20.20
2017-10-23T02:39:05.996Z,15.40
2017-10-23T02:41:40.442Z,19.35
2017-10-23T02:44:14.928Z,21.05
2017-10-23T02:46:50.136Z,18.87
2017-10-23T02:49:24.554Z,20.42
2017-10-23T02:51:59.013Z,21.55
2017-10-23T02:54:33.452Z,21.08
2017-10-23T02:57:07.920Z,20.83
2017-10-23T02:59:42.448Z,20.27
2017-10-23T03:02:16.977Z,20.67
2017-10-23T03:04:51.405Z,21.75
2017-10-23T03:07:25.894Z,22.27
2017-10-23T03:10:01.056Z,23.00
2017-10-23T03:12:35.536Z,23.85
2017-10-23T03:15:09.856Z,19.33
2017-10-23T03:17:44.198Z,25.23
2017-10-23T03:20:18.660Z,21.95
2017-10-23T03:22:53.158Z,22.00
2017-10-23T03:25:27.759Z,24.87
2017-10-23T03:28:02.868Z,23.77
2017-10-23T03:30:37.764Z,25.85
2017-10-23T03:33:12.272Z,26.55
2017-10-23T03:35:46.703Z,25.17
2017-10-23T03:38:21.207Z,21.33
2017-10-23T03:40:55.687Z,23.92
2017-10-23T03:43:30.065Z,24.33
2017-10-23T03:46:04.564Z,24.95
2017-10-23T03:48:39.088Z,31.62
2017-10-23T03:51:13.519Z,23.33
2017-10-23T03:53:47.949Z,23.73
2017-10-23T03:56:22.386Z,22.55
2017-10-23T03:58:56.765Z,23.48
2017-10-23T04:01:31.264Z,25.25
2017-10-23T04:04:05.834Z,31.55
2017-10-23T04:06:40.190Z,25.27
2017-10-23T04:09:14.583Z,24.17
2017-10-23T04:11:49.048Z,23.60
2017-10-23T04:14:23.421Z,23.17
2017-10-23T04:16:57.905Z,28.23
2017-10-23T04:19:32.337Z,22.27
2017-10-23T04:22:06.860Z,24.55
2017-10-23T04:24:42.580Z,24.90
2017-10-23T04:27:16.941Z,23.92
2017-10-23T04:29:51.564Z,18.33
2017-10-23T04:32:26.000Z,23.55
2017-10-23T04:35:00.625Z,22.77
2017-10-23T04:37:35.107Z,19.48
2017-10-23T04:40:09.642Z,21.65
2017-10-23T04:42:44.063Z,22.85
2017-10-23T04:45:18.589Z,21.95
2017-10-23T04:47:53.073Z,19.45
2017-10-23T04:50:27.601Z,20.05
2017-10-23T04:53:02.100Z,22.95
2017-10-23T04:55:36.764Z,26.52
2017-10-23T04:58:12.026Z,18.85
2017-10-23T05:00:46.378Z,20.25
2017-10-23T05:03:20.695Z,23.10
2017-10-23T05:05:55.156Z,21.95
2017-10-23T05:08:30.413Z,17.42
2017-10-23T05:11:04.796Z,19.58
2017-10-23T05:13:39.957Z,20.95
2017-10-23T05:16:14.417Z,18.02
2017-10-23T05:18:48.917Z,19.85
2017-10-23T05:21:23.256Z,21.77
2017-10-23T05:23:57.615Z,16.75
2017-10-23T05:26:32.846Z,18.37
2017-10-23T05:29:07.286Z,18.75
2017-10-23T05:31:41.665Z,12.20
2017-10-23T05:34:16.013Z,16.10
2017-10-23T05:36:50.502Z,16.60
2017-10-23T05:39:24.992Z,22.75
2017-10-23T05:41:59.593Z,17.73
2017-10-23T05:44:33.876Z,12.75
2017-10-23T05:47:08.201Z,12.80
2017-10-23T05:49:42.532Z,15.30
2017-10-23T05:52:16.876Z,13.20
2017-10-23T05:54:52.059Z,14.45
2017-10-23T05:57:26.398Z,13.85
2017-10-23T06:00:00.865Z,14.20
2017-10-23T06:02:35.329Z,12.57
2017-10-23T06:05:09.787Z,13.65
2017-10-23T06:07:44.868Z,13.95
2017-10-23T06:10:19.938Z,10.68
2017-10-23T06:12:54.435Z,10.73
2017-10-23T06:15:28.768Z,10.50
2017-10-23T06:18:03.198Z,8.82
2017-10-23T06:20:38.564Z,14.10
2017-10-23T06:23:13.043Z,6.78
2017-10-23T06:25:47.396Z,9.95
2017-10-23T06:28:21.846Z,10.35
2017-10-23T06:30:56.259Z,10.68
2017-10-23T06:33:30.726Z,10.32
2017-10-23T06:36:05.200Z,8.93
2017-10-23T06:38:39.691Z,13.32
2017-10-23T06:41:14.242Z,15.48
2017-10-23T06:43:48.813Z,13.10
2017-10-23T06:46:23.216Z,11.85
2017-10-23T06:48:57.633Z,12.27
2017-10-23T06:51:32.074Z,13.55
2017-10-23T06:54:06.595Z,13.48
2017-10-23T06:56:41.155Z,14.00
2017-10-23T06:59:15.489Z,13.77
2017-10-23T07:01:49.935Z,17.50
2017-10-23T07:04:24.471Z,17.45
2017-10-23T07:06:59.589Z,19.33
2017-10-23T07:09:33.998Z,15.60
2017-10-23T07:12:08.412Z,16.92
2017-10-23T07:14:42.896Z,18.37
2017-10-23T07:17:17.364Z,14.48
2017-10-23T07:19:52.014Z,18.67
2017-10-23T07:22:27.120Z,15.52
2017-10-23T07:25:01.602Z,14.50
2017-10-23T07:27:36.095Z,16.45
2017-10-23T07:30:10.480Z,17.20
2017-10-23T07:32:44.975Z,20.20
2017-10-23T07:35:19.488Z,17.75
2017-10-23T07:37:53.982Z,15.18
2017-10-23T07:40:28.516Z,13.43
2017-10-23T07:43:03.233Z,14.50
2017-10-23T07:45:37.865Z,18.65
2017-10-23T07:48:12.481Z,16.12
2017-10-23T07:50:47.546Z,17.37
2017-10-23T07:53:22.389Z,12.60
2017-10-23T07:55:56.763Z,13.80
2017-10-23T07:58:31.167Z,16.40
2017-10-23T08:01:05.857Z,14.77
2017-10-23T08:03:40.852Z,15.23
2017-10-23T08:06:15.412Z,15.45
2017-10-23T08:08:49.835Z,16.65
2017-10-23T08:11:24.221Z,19.00
2017-10-23T08:13:58.813Z,17.08
2017-10-23T08:16:33.239Z,17.08
2017-10-23T08:19:07.599Z,12.68
2017-10-23T08:21:42.800Z,14.85
2017-10-23T08:24:17.109Z,12.80
2017-10-23T08:26:51.457Z,12.35
2017-10-23T08:29:25.835Z,11.73
2017-10-23T08:32:00.326Z,12.98
2017-10-23T08:34:34.780Z,11.75
2017-10-23T08:37:09.287Z,14.00
2017-10-23T08:39:43.792Z,10.95
2017-10-23T08:42:18.104Z,12.00
2017-10-23T08:44:52.532Z,11.77
2017-10-23T08:47:26.863Z,11.32
2017-10-23T08:50:01.322Z,14.38
2017-10-23T08:52:35.828Z,12.40
2017-10-23T08:55:10.192Z,11.80
2017-10-23T08:57:44.692Z,11.05
2017-10-23T09:00:19.507Z,105.93
2017-10-23T09:02:53.995Z,11.25
2017-10-23T09:05:29.213Z,10.20
2017-10-23T09:08:03.567Z,13.20
2017-10-23T09:10:38.109Z,9.05
2017-10-23T09:13:15.391Z,8.30
2017-10-23T09:15:50.295Z,6.57
2017-10-23T09:18:24.738Z,5.97
2017-10-23T09:20:59.170Z,8.73
2017-10-23T09:23:33.557Z,6.07
2017-10-23T09:26:07.952Z,7.62
2017-10-23T09:28:42.411Z,4.62
2017-10-23T09:31:16.820Z,7.07
2017-10-23T09:33:51.327Z,5.07
2017-10-23T09:36:26.625Z,5.20
2017-10-23T09:39:01.001Z,5.62
2017-10-23T09:41:35.515Z,6.40
2017-10-23T09:44:10.188Z,4.37
2017-10-23T09:46:44.781Z,5.62
2017-10-23T09:49:19.164Z,5.43
2017-10-23T09:51:54.412Z,5.45
2017-10-23T09:54:30.042Z,4.72
2017-10-23T09:57:05.172Z,5.37
2017-10-23T09:59:39.562Z,7.78
2017-10-23T10:02:14.032Z,5.70
2017-10-23T10:04:48.365Z,3.97
2017-10-23T10:07:22.821Z,3.03
2017-10-23T10:09:57.384Z,3.35
2017-10-23T10:12:31.938Z,6.15
2017-10-23T10:15:06.327Z,3.20
2017-10-23T10:17:40.796Z,3.67
2017-10-23T10:20:16.945Z,3.20
2017-10-23T10:22:51.283Z,3.03
2017-10-23T10:25:26.453Z,3.15
2017-10-23T10:28:00.782Z,3.30
2017-10-23T10:30:35.228Z,3.28
2017-10-23T10:33:09.661Z,2.55
2017-10-23T10:35:44.055Z,2.90
2017-10-23T10:38:18.649Z,2.12
2017-10-23T10:40:53.111Z,2.30
2017-10-23T10:43:27.646Z,3.00
2017-10-23T10:46:02.073Z,3.40
2017-10-23T10:48:36.485Z,2.53
2017-10-23T10:51:10.948Z,2.42
2017-10-23T10:53:45.309Z,2.58
2017-10-23T10:56:19.801Z,2.33
2017-10-23T10:58:54.208Z,2.95
2017-10-23T11:01:28.536Z,2.60
2017-10-23T11:04:11.259Z,3.22
2017-10-23T11:06:45.701Z,2.10
2017-10-23T11:09:20.155Z,3.25
2017-10-23T11:11:55.320Z,2.05
2017-10-23T11:14:29.675Z,2.40
2017-10-23T11:17:04.097Z,2.10
2017-10-23T11:19:38.413Z,2.95
2017-10-23T11:22:14.628Z,2.80
2017-10-23T11:24:49.020Z,2.03
2017-10-23T11:27:23.777Z,4.00
2017-10-23T11:29:58.162Z,2.70
2017-10-23T11:32:32.624Z,1.90
2017-10-23T11:35:07.060Z,3.80
2017-10-23T11:37:41.490Z,3.00
2017-10-23T11:40:15.914Z,5.32
2017-10-23T11:42:50.414Z,5.05
2017-10-23T11:45:24.751Z,4.93
2017-10-23T11:47:59.070Z,6.85
2017-10-23T11:50:33.410Z,19.33
2017-10-23T11:53:08.533Z,11.85
2017-10-23T11:55:43.045Z,1.17
2017-10-23T11:58:17.502Z,2.60
2017-10-23T12:00:52.012Z,1.80
2017-10-23T12:03:26.323Z,3.62
2017-10-23T12:06:01.432Z,1.45
2017-10-23T12:08:36.553Z,1.83
2017-10-23T12:11:11.063Z,3.03
2017-10-23T12:13:45.363Z,1.92
2017-10-23T12:16:19.691Z,2.50
2017-10-23T12:18:54.119Z,2.80
2017-10-23T12:21:28.419Z,6.75
2017-10-23T12:24:02.857Z,3.22
2017-10-23T12:26:37.188Z,3.72
2017-10-23T12:29:11.498Z,4.35
2017-10-23T12:31:46.664Z,3.42
2017-10-23T12:34:21.079Z,3.75
2017-10-23T12:36:55.447Z,3.25
2017-10-23T12:39:30.011Z,4.40
2017-10-23T12:42:04.492Z,4.00
2017-10-23T12:44:39.016Z,4.30
2017-10-23T12:47:13.415Z,4.22
2017-10-23T12:49:47.907Z,4.55
2017-10-23T12:52:22.263Z,4.47
2017-10-23T12:54:56.781Z,3.97
2017-10-23T12:57:31.136Z,4.22
2017-10-23T13:00:06.366Z,4.87
2017-10-23T13:02:41.544Z,2.80
2017-10-23T13:05:16.009Z,3.40
2017-10-23T13:07:50.359Z,3.33
2017-10-23T13:10:24.748Z,4.25
2017-10-23T13:12:59.223Z,3.50
2017-10-23T13:15:33.724Z,3.80
2017-10-23T13:18:08.080Z,4.85
2017-10-23T13:20:43.312Z,3.47
2017-10-23T13:23:17.860Z,4.85
2017-10-23T13:25:52.423Z,6.25
2017-10-23T13:28:26.835Z,6.40
2017-10-23T13:31:01.273Z,4.85
2017-10-23T13:33:35.816Z,4.87
2017-10-23T13:36:10.308Z,5.85
2017-10-23T13:38:44.608Z,4.43
2017-10-23T13:41:19.059Z,3.92
2017-10-23T13:43:53.365Z,5.47
2017-10-23T13:46:27.707Z,6.18
2017-10-23T13:49:02.070Z,4.20
2017-10-23T13:51:36.390Z,7.30
2017-10-23T13:54:10.875Z,4.40
2017-10-23T13:56:45.457Z,4.95
2017-10-23T13:59:19.998Z,4.28
2017-10-23T14:01:54.461Z,6.03
2017-10-23T14:04:28.857Z,8.57
2017-10-23T14:07:03.341Z,10.40
2017-10-23T14:09:37.852Z,8.93
2017-10-23T14:12:13.029Z,8.57
2017-10-23T14:14:47.350Z,12.40
2017-10-23T14:17:21.831Z,8.63
2017-10-23T14:19:56.262Z,7.72
2017-10-23T14:22:30.608Z,5.80
2017-10-23T14:25:05.233Z,6.50
2017-10-23T14:27:40.571Z,6.12
2017-10-23T14:30:14.987Z,9.05
2017-10-23T14:32:49.564Z,6.95
2017-10-23T14:35:23.884Z,6.35
2017-10-23T14:37:58.220Z,6.68
2017-10-23T14:40:32.566Z,8.80
2017-10-23T14:43:06.930Z,9.40
2017-10-23T14:45:42.135Z,15.50
2017-10-23T14:48:16.629Z,10.70
2017-10-23T14:50:51.010Z,11.40
2017-10-23T14:53:25.358Z,11.63
2017-10-23T14:55:59.838Z,10.40
2017-10-23T14:58:34.275Z,9.98
2017-10-23T15:01:09.433Z,13.55
2017-10-23T15:03:44.561Z,9.52
2017-10-23T15:06:18.930Z,8.93
2017-10-23T15:08:53.423Z,10.10
2017-10-23T15:11:27.756Z,7.10
2017-10-23T15:14:02.146Z,8.95
2017-10-23T15:16:37.485Z,8.18
2017-10-23T15:19:12.629Z,11.60
2017-10-23T15:21:47.093Z,6.43
2017-10-23T15:24:21.557Z,7.18
2017-10-23T15:26:55.957Z,6.70
2017-10-23T15:29:30.400Z,5.60
2017-10-23T15:32:04.910Z,5.07
2017-10-23T15:34:39.332Z,5.75
2017-10-23T15:37:13.808Z,5.85
2017-10-23T15:39:48.276Z,4.43
2017-10-23T15:42:22.692Z,3.80
2017-10-23T15:44:57.110Z,3.28
2017-10-23T15:47:31.472Z,3.83
2017-10-23T15:50:06.760Z,3.37
2017-10-23T15:52:41.105Z,3.03
2017-10-23T15:55:15.556Z,3.22
2017-10-23T15:57:51.270Z,5.20
2017-10-23T16:00:25.712Z,3.15
2017-10-23T16:03:00.261Z,4.72
2017-10-23T16:05:34.693Z,3.80
2017-10-23T16:08:10.022Z,3.78
2017-10-23T16:10:44.794Z,3.78
2017-10-23T16:13:19.117Z,4.20
2017-10-23T16:15:54.335Z,4.10
2017-10-23T16:18:28.847Z,5.90
2017-10-23T16:21:03.444Z,6.10
2017-10-23T16:23:38.201Z,6.90
2017-10-23T16:26:12.705Z,10.85
2017-10-23T16:28:47.055Z,5.20
2017-10-23T16:31:21.520Z,5.03
2017-10-23T16:33:55.904Z,5.00
2017-10-23T16:36:30.394Z,4.37
2017-10-23T16:39:04.861Z,4.70
2017-10-23T16:41:39.433Z,4.30
2017-10-23T16:44:14.697Z,5.62
2017-10-23T16:46:49.807Z,5.40
2017-10-23T16:49:24.378Z,4.70
2017-10-23T16:51:58.725Z,4.53
2017-10-23T16:54:33.188Z,4.60
2017-10-23T16:57:08.410Z,4.40
2017-10-23T16:59:42.746Z,4.70
2017-10-23T17:02:17.987Z,5.80
2017-10-23T17:04:52.320Z,5.85
2017-10-23T17:07:26.784Z,6.05
2017-10-23T17:10:01.225Z,5.55
2017-10-23T17:12:35.659Z,5.82
2017-10-23T17:15:10.080Z,5.07
2017-10-23T17:17:44.424Z,14.15
2017-10-23T17:20:19.508Z,6.80
2017-10-23T17:22:54.006Z,6.62
2017-10-23T17:25:28.463Z,6.00
2017-10-23T17:28:02.926Z,6.75
2017-10-23T17:30:37.520Z,6.35
2017-10-23T17:33:12.086Z,8.93
2017-10-23T17:35:46.581Z,8.73
2017-10-23T17:38:21.358Z,8.30
2017-10-23T17:40:55.956Z,7.32
2017-10-23T17:43:30.419Z,8.20
2017-10-23T17:46:04.900Z,10.48
2017-10-23T17:48:39.364Z,11.50
2017-10-23T17:51:13.714Z,9.75
2017-10-23T17:53:48.152Z,13.13
2017-10-23T17:56:22.607Z,14.02
2017-10-23T17:58:57.347Z,11.55
2017-10-23T18:01:31.834Z,12.45
2017-10-23T18:04:06.368Z,9.88
2017-10-23T18:06:40.782Z,10.48
2017-10-23T18:09:15.224Z,10.80
2017-10-23T18:11:50.557Z,11.95
2017-10-23T18:14:25.931Z,16.35
2017-10-23T18:17:00.696Z,10.90
2017-10-23T18:19:35.464Z,13.55
2017-10-23T18:22:10.039Z,12.82
2017-10-23T18:24:44.945Z,12.93
2017-10-23T18:27:20.432Z,14.40
2017-10-23T18:29:55.739Z,11.98
2017-10-23T18:32:30.355Z,11.95
2017-10-23T18:35:05.131Z,10.93
2017-10-23T18:37:39.750Z,9.35
2017-10-23T18:40:14.617Z,14.80
2017-10-23T18:42:49.506Z,11.98
2017-10-23T18:45:24.209Z,14.68
2017-10-23T18:47:58.871Z,11.15
2017-10-23T18:50:33.696Z,12.82
2017-10-23T18:53:08.553Z,13.02
2017-10-23T18:55:43.395Z,17.00
2017-10-23T18:58:18.412Z,18.83
2017-10-23T19:00:53.468Z,16.15
2017-10-23T19:03:29.049Z,16.00
2017-10-23T19:06:03.897Z,17.95
2017-10-23T19:08:38.840Z,14.98
2017-10-23T19:11:13.708Z,19.33
2017-10-23T19:13:49.584Z,16.37
2017-10-23T19:16:24.674Z,13.70
2017-10-23T19:18:59.748Z,12.75
2017-10-23T19:21:34.799Z,14.38
2017-10-23T19:24:09.547Z,12.85
2017-10-23T19:26:44.479Z,14.75
2017-10-23T19:29:19.790Z,14.05
2017-10-23T19:31:55.683Z,13.80
2017-10-23T19:34:30.473Z,15.65
2017-10-23T19:37:05.574Z,14.60
2017-10-23T19:39:40.528Z,15.18
2017-10-23T19:42:15.361Z,13.62
2017-10-23T19:44:50.161Z,16.87
2017-10-23T19:47:25.928Z,13.60
2017-10-23T19:50:00.745Z,11.73
2017-10-23T19:52:35.653Z,12.82
2017-10-23T19:55:10.281Z,14.07
2017-10-23T19:57:46.045Z,13.10
2017-10-23T20:00:20.961Z,14.23
2017-10-23T20:02:56.039Z,15.98
2017-10-23T20:05:30.920Z,12.40
2017-10-23T20:08:06.519Z,13.00
2017-10-23T20:10:41.620Z,12.95
2017-10-23T20:13:16.412Z,12.10
2017-10-23T20:15:51.169Z,16.58
2017-10-23T20:18:26.501Z,19.23
2017-10-23T20:21:01.449Z,15.65
2017-10-23T20:23:36.245Z,13.05
2017-10-23T20:26:11.383Z,17.12
2017-10-23T20:28:46.730Z,18.02
2017-10-23T20:31:22.241Z,13.20
2017-10-23T20:33:56.980Z,17.42
2017-10-23T20:36:31.368Z,14.80
2017-10-23T20:39:05.818Z,12.45
2017-10-23T20:41:40.470Z,14.55
2017-10-23T20:44:15.013Z,14.07
2017-10-23T20:46:49.579Z,12.32
2017-10-23T20:49:23.953Z,16.62
2017-10-23T20:51:58.468Z,15.00
2017-10-23T20:54:32.784Z,11.88
2017-10-23T20:57:07.309Z,13.18
2017-10-23T20:59:41.617Z,13.35
2017-10-23T21:02:16.094Z,12.75
2017-10-23T21:04:50.456Z,11.90
2017-10-23T21:07:24.791Z,14.93
2017-10-23T21:09:59.247Z,15.18
2017-10-23T21:12:33.658Z,14.80
2017-10-23T21:15:08.084Z,15.13
2017-10-23T21:17:42.587Z,15.80
2017-10-23T21:20:17.108Z,12.90
2017-10-23T21:22:51.921Z,16.83
2017-10-23T21:25:27.368Z,14.07
2017-10-23T21:28:01.908Z,14.30
2017-10-23T21:30:36.387Z,12.80
2017-10-23T21:33:10.795Z,14.60
2017-10-23T21:35:45.189Z,19.15
2017-10-23T21:38:19.532Z,15.20
2017-10-23T21:40:53.945Z,14.43
2017-10-23T21:43:28.351Z,13.45
2017-10-23T21:46:02.893Z,11.85
2017-10-23T21:48:37.283Z,13.02
2017-10-23T21:51:11.761Z,11.45
2017-10-23T21:53:46.271Z,11.98
2017-10-23T21:56:20.776Z,12.20
2017-10-23T21:58:55.120Z,12.70
2017-10-23T22:01:29.643Z,16.58
2017-10-23T22:04:04.776Z,13.82
2017-10-23T22:06:39.094Z,10.00
2017-10-23T22:09:13.552Z,11.25
2017-10-23T22:11:48.041Z,10.63
2017-10-23T22:14:22.512Z,10.07
2017-10-23T22:16:56.965Z,14.43
2017-10-23T22:19:31.415Z,15.27
2017-10-23T22:22:05.912Z,12.73
2017-10-23T22:24:40.417Z,12.13
2017-10-23T22:27:14.891Z,12.63
2017-10-23T22:29:49.340Z,12.27
2017-10-23T22:32:23.772Z,12.27
2017-10-23T22:34:58.148Z,12.37
2017-10-23T22:37:32.624Z,17.75
2017-10-23T22:40:07.039Z,16.05
2017-10-23T22:42:41.486Z,11.63
2017-10-23T22:45:15.877Z,12.35
2017-10-23T22:47:50.375Z,15.60
2017-10-23T22:50:24.748Z,15.60
2017-10-23T22:52:59.255Z,13.55
2017-10-23T22:55:33.688Z,14.52
2017-10-23T22:58:08.187Z,14.00
2017-10-23T23:00:42.510Z,12.77
2017-10-23T23:03:17.624Z,14.00
2017-10-23T23:05:52.087Z,16.65
2017-10-23T23:08:26.539Z,13.15
2017-10-23T23:11:01.216Z,15.20
2017-10-23T23:13:35.560Z,14.73
2017-10-23T23:16:10.125Z,16.58
2017-10-23T23:18:44.536Z,14.00
2017-10-23T23:21:19.133Z,12.95
2017-10-23T23:23:53.619Z,11.40
2017-10-23T23:26:28.090Z,13.10
2017-10-23T23:29:02.526Z,11.55
2017-10-23T23:31:36.963Z,13.68
2017-10-23T23:34:11.381Z,12.48
2017-10-23T23:36:45.721Z,14.75
2017-10-23T23:39:20.189Z,11.18
2017-10-23T23:41:54.505Z,12.95
2017-10-23T23:44:28.828Z,13.77
2017-10-23T23:47:03.200Z,13.75
2017-10-23T23:49:37.716Z,14.57
2017-10-23T23:52:12.068Z,13.05
2017-10-23T23:54:46.419Z,15.35
2017-10-23T23:57:20.736Z,13.93
2017-10-23T23:59:55.173Z,17.80
